Weerstation
Sluispark-LeuvenLeuven-Sluispark



Het weer levert geen direct gevaar op.    Er zijn geen waarschuwingen afgegeven.

Nabijgelegen vliegvelden - METAR rapporten

   
EBBR - Wilsele bij Leuven
Gewijzigd: 16-02-2019 05:20
Helder    Wind: Zuiden 14.8 km/h
Helder
Wind: Wind: Zuiden 14.8 km/h
Temperatuur: 5°C
Voelt als: 2°C
Dauwpunt: 1°C
Vochtigheid: 76%
Barometer: 1025 hPa
Zicht: meer dan 10 km
Bewolking: Helder
EBBR 160420Z 19008KT CAVOK 05/01 Q1025 NOSIG
EBAW - Antwerp
Gewijzigd: 16-02-2019 05:20
Helder    Wind: ZZO 5.6 km/h
Helder
Wind: Wind: ZZO 5.6 km/h
Temperatuur: 2°C
Voelt als: 1°C
Dauwpunt: -1°C
Vochtigheid: 81%
Barometer: 1025 hPa
Zicht: meer dan 10 km
Bewolking: Helder
EBAW 160420Z AUTO 15003KT CAVOK 02/M01 Q1025
EBLG - Li├Ęge
Gewijzigd: 16-02-2019 05:20
Helder    Wind: Zuiden 18.5 km/h
Helder
Wind: Wind: Zuiden 18.5 km/h
Temperatuur: 8°C
Voelt als: 5°C
Dauwpunt: -1°C
Vochtigheid: 53%
Barometer: 1026 hPa
Zicht: meer dan 10 km
Bewolking: Helder
EBLG 160420Z 17010KT CAVOK 08/M01 Q1026 NOSIG
EBCV - Mons/Bergen
Gewijzigd: 16-02-2019 05:25
Helder    Wind: ZO 5.6 km/h
Helder
Wind: Wind: ZO 5.6 km/h
Temperatuur: 3°C
Voelt als: 2°C
Dauwpunt: 0°C
Vochtigheid: 81%
Barometer: 1026 hPa
Bewolking: Helder
Zicht: meer dan 10 km
Bewolking: Helder
EBCV 160425Z AUTO 14003KT 9999 NCD 03/00 Q1026 BLU
EHBK - Maastricht
Gewijzigd: 16-02-2019 05:25
Helder    Wind: ZZW 16.7 km/h
Helder
Wind: Wind: ZZW 16.7 km/h
Temperatuur: 5°C
Voelt als: 2°C
Dauwpunt: 0°C
Vochtigheid: 70%
Barometer: 1025 hPa
Bewolking: Helder
Zicht: meer dan 10 km
Bewolking: Helder
EHBK 160425Z AUTO 20009KT 9999 NCD 05/M00 Q1025
ELLX - Luxemburg
Gewijzigd: 16-02-2019 05:20
Helder    Wind: ZO 5.6 km/h
Helder
Wind: Wind: ZO 5.6 km/h
Temperatuur: 4°C
Voelt als: 3°C
Dauwpunt: -1°C
Vochtigheid: 70%
Barometer: 1027 hPa
Zicht: meer dan 10 km
Bewolking: Helder
ELLX 160420Z 14003KT 100V180 CAVOK 04/M01 Q1027 NOSIG
EBOS - Oostende
Gewijzigd: 16-02-2019 05:20
Gedeeltelijk bewolkt    Wind: Zuiden 13 km/h
Gedeeltelijk bewolkt
Wind: Wind: Zuiden 13 km/h
Temperatuur: 3°C
Voelt als: -1°C
Dauwpunt: 0°C
Vochtigheid: 81%
Barometer: 1024 hPa
Bewolking: Gedeeltelijk bewolkt
Zicht: 8 km
Bewolking: Gedeeltelijk bewolkt
EBOS 160420Z 19007KT 8000 NSC 03/00 Q1024 NOSIG
  

Script ontwikkeld door  Saratoga-weather.org Aangepast voor de template door  Weerstation Leuven

U vindt ons ook hier:

UK Metoffice

WeatherCloud

European Weather Network

Weather Underground

Benelux Weather Network

AWEKAS

WeatherlinkIP

Het Weer Aktueel

Apparatuur in gebruik:

Weer-station
Davis VP2 weatherstation

Weer-programma
Meteobridge

Weer-computer
D-Link DIR-505

Webleverancier
Robohost

Davis VP2 weatherstation

Meteobridge

D-Link DIR-505

Robohost